sensor_id;sensor_type;location;lat;lon;timestamp;P1;durP1;ratioP1;P2;durP2;ratioP2
16430;SDS011;8325;49.284;7.238;2022-12-05T05:07:46;8.77;;;4.90;;
16430;SDS011;8325;49.284;7.238;2022-12-05T05:11:59;8.80;;;4.87;;
16430;SDS011;8325;49.284;7.238;2022-12-05T05:16:14;10.37;;;5.93;;
16430;SDS011;8325;49.284;7.238;2022-12-05T05:20:28;8.50;;;5.63;;
16430;SDS011;8325;49.284;7.238;2022-12-05T05:24:40;10.07;;;5.93;;
16430;SDS011;8325;49.284;7.238;2022-12-05T05:28:51;10.20;;;6.77;;
16430;SDS011;8325;49.284;7.238;2022-12-05T05:33:03;11.67;;;6.67;;
16430;SDS011;8325;49.284;7.238;2022-12-05T05:37:15;13.53;;;7.40;;
16430;SDS011;8325;49.284;7.238;2022-12-05T05:41:28;16.90;;;7.40;;
16430;SDS011;8325;49.284;7.238;2022-12-05T05:45:44;10.77;;;6.40;;
16430;SDS011;8325;49.284;7.238;2022-12-05T05:49:55;13.40;;;7.30;;
16430;SDS011;8325;49.284;7.238;2022-12-05T05:54:08;13.23;;;7.07;;
16430;SDS011;8325;49.284;7.238;2022-12-05T05:58:19;11.33;;;7.30;;
16430;SDS011;8325;49.284;7.238;2022-12-05T06:02:32;10.37;;;6.40;;
16430;SDS011;8325;49.284;7.238;2022-12-05T06:06:44;11.97;;;6.67;;
16430;SDS011;8325;49.284;7.238;2022-12-05T06:10:56;10.67;;;6.50;;
16430;SDS011;8325;49.284;7.238;2022-12-05T06:15:07;11.47;;;7.40;;
16430;SDS011;8325;49.284;7.238;2022-12-05T06:19:19;13.40;;;7.60;;
16430;SDS011;8325;49.284;7.238;2022-12-05T06:23:31;16.60;;;10.17;;
16430;SDS011;8325;49.284;7.238;2022-12-05T06:27:42;16.43;;;10.20;;
16430;SDS011;8325;49.284;7.238;2022-12-05T06:31:54;16.10;;;10.17;;
16430;SDS011;8325;49.284;7.238;2022-12-05T06:36:10;17.43;;;10.27;;
16430;SDS011;8325;49.284;7.238;2022-12-05T06:40:23;36.90;;;17.30;;
16430;SDS011;8325;49.284;7.238;2022-12-05T06:44:35;17.77;;;9.60;;
16430;SDS011;8325;49.284;7.238;2022-12-05T06:48:46;14.93;;;9.23;;
16430;SDS011;8325;49.284;7.238;2022-12-05T06:52:58;15.50;;;8.17;;
16430;SDS011;8325;49.284;7.238;2022-12-05T06:57:09;16.60;;;8.57;;
16430;SDS011;8325;49.284;7.238;2022-12-05T07:01:22;20.77;;;9.67;;
16430;SDS011;8325;49.284;7.238;2022-12-05T07:05:49;14.80;;;8.57;;
16430;SDS011;8325;49.284;7.238;2022-12-05T07:10:01;16.77;;;8.03;;
16430;SDS011;8325;49.284;7.238;2022-12-05T07:14:14;17.10;;;9.27;;
16430;SDS011;8325;49.284;7.238;2022-12-05T07:18:45;18.70;;;10.23;;
16430;SDS011;8325;49.284;7.238;2022-12-05T07:22:57;18.77;;;9.60;;
16430;SDS011;8325;49.284;7.238;2022-12-05T07:27:08;15.40;;;8.60;;
16430;SDS011;8325;49.284;7.238;2022-12-05T07:31:20;17.23;;;8.93;;
16430;SDS011;8325;49.284;7.238;2022-12-05T07:35:33;18.87;;;9.13;;
16430;SDS011;8325;49.284;7.238;2022-12-05T07:39:45;20.07;;;10.00;;
16430;SDS011;8325;49.284;7.238;2022-12-05T07:43:57;21.40;;;10.57;;
16430;SDS011;8325;49.284;7.238;2022-12-05T07:48:10;25.83;;;10.93;;
16430;SDS011;8325;49.284;7.238;2022-12-05T07:52:28;23.73;;;10.30;;
16430;SDS011;8325;49.284;7.238;2022-12-05T07:56:40;22.03;;;11.50;;
16430;SDS011;8325;49.284;7.238;2022-12-05T08:05:37;20.23;;;10.27;;
16430;SDS011;8325;49.284;7.238;2022-12-05T08:09:48;25.10;;;12.40;;
16430;SDS011;8325;49.284;7.238;2022-12-05T08:14:00;21.93;;;11.00;;
16430;SDS011;8325;49.284;7.238;2022-12-05T08:18:12;23.20;;;11.83;;
16430;SDS011;8325;49.284;7.238;2022-12-05T08:22:24;23.13;;;10.73;;
16430;SDS011;8325;49.284;7.238;2022-12-05T08:26:35;20.63;;;10.73;;
16430;SDS011;8325;49.284;7.238;2022-12-05T08:30:48;18.30;;;10.23;;
16430;SDS011;8325;49.284;7.238;2022-12-05T08:35:00;18.90;;;10.07;;
16430;SDS011;8325;49.284;7.238;2022-12-05T08:39:13;20.03;;;10.63;;
16430;SDS011;8325;49.284;7.238;2022-12-05T08:43:27;20.67;;;10.67;;
16430;SDS011;8325;49.284;7.238;2022-12-05T08:47:40;21.67;;;10.70;;
16430;SDS011;8325;49.284;7.238;2022-12-05T08:51:51;18.17;;;10.53;;
16430;SDS011;8325;49.284;7.238;2022-12-05T08:56:03;19.70;;;10.27;;
16430;SDS011;8325;49.284;7.238;2022-12-05T09:00:16;18.70;;;9.73;;
16430;SDS011;8325;49.284;7.238;2022-12-05T09:04:28;22.07;;;11.20;;
16430;SDS011;8325;49.284;7.238;2022-12-05T09:08:40;20.70;;;10.70;;
16430;SDS011;8325;49.284;7.238;2022-12-05T09:12:52;22.97;;;10.53;;
16430;SDS011;8325;49.284;7.238;2022-12-05T09:17:04;21.33;;;10.50;;
16430;SDS011;8325;49.284;7.238;2022-12-05T09:21:16;18.53;;;10.00;;
16430;SDS011;8325;49.284;7.238;2022-12-05T09:25:30;24.43;;;11.27;;
16430;SDS011;8325;49.284;7.238;2022-12-05T09:29:41;18.60;;;9.87;;
16430;SDS011;8325;49.284;7.238;2022-12-05T09:33:53;22.33;;;10.30;;
16430;SDS011;8325;49.284;7.238;2022-12-05T09:38:05;17.17;;;9.23;;
16430;SDS011;8325;49.284;7.238;2022-12-05T09:47:03;18.90;;;9.50;;
16430;SDS011;8325;49.284;7.238;2022-12-05T09:51:23;16.83;;;8.77;;
16430;SDS011;8325;49.284;7.238;2022-12-05T09:59:58;13.63;;;7.93;;
16430;SDS011;8325;49.284;7.238;2022-12-05T10:13:00;15.43;;;8.57;;
16430;SDS011;8325;49.284;7.238;2022-12-05T10:17:27;15.73;;;8.57;;
16430;SDS011;8325;49.284;7.238;2022-12-05T10:21:49;17.80;;;10.10;;
16430;SDS011;8325;49.284;7.238;2022-12-05T10:26:10;16.27;;;8.70;;
16430;SDS011;8325;49.284;7.238;2022-12-05T10:30:29;15.40;;;7.53;;
16430;SDS011;8325;49.284;7.238;2022-12-05T10:34:44;15.13;;;8.33;;
16430;SDS011;8325;49.284;7.238;2022-12-05T10:38:57;16.17;;;8.50;;
16430;SDS011;8325;49.284;7.238;2022-12-05T10:43:09;12.83;;;8.13;;
16430;SDS011;8325;49.284;7.238;2022-12-05T10:47:24;16.97;;;8.67;;
16430;SDS011;8325;49.284;7.238;2022-12-05T10:51:36;16.25;;;8.52;;
16430;SDS011;8325;49.284;7.238;2022-12-05T10:55:49;15.60;;;8.07;;
16430;SDS011;8325;49.284;7.238;2022-12-05T11:00:24;12.27;;;7.07;;
16430;SDS011;8325;49.284;7.238;2022-12-05T11:04:43;13.50;;;7.30;;
16430;SDS011;8325;49.284;7.238;2022-12-05T11:08:56;12.80;;;7.50;;
16430;SDS011;8325;49.284;7.238;2022-12-05T11:13:21;8.33;;;5.20;;
16430;SDS011;8325;49.284;7.238;2022-12-05T11:17:36;7.90;;;5.27;;
16430;SDS011;8325;49.284;7.238;2022-12-05T11:21:49;7.78;;;5.20;;
16430;SDS011;8325;49.284;7.238;2022-12-05T11:26:01;7.87;;;5.10;;
16430;SDS011;8325;49.284;7.238;2022-12-05T11:30:23;8.90;;;4.97;;
16430;SDS011;8325;49.284;7.238;2022-12-05T11:34:42;7.95;;;4.95;;
16430;SDS011;8325;49.284;7.238;2022-12-05T11:38:56;10.68;;;6.22;;
16430;SDS011;8325;49.284;7.238;2022-12-05T11:56:02;8.32;;;4.93;;
16430;SDS011;8325;49.284;7.238;2022-12-05T12:05:24;5.53;;;3.47;;
16430;SDS011;8325;49.284;7.238;2022-12-05T12:19:01;5.40;;;3.58;;
16430;SDS011;8325;49.284;7.238;2022-12-05T12:28:33;9.50;;;5.47;;
16430;SDS011;8325;49.284;7.238;2022-12-05T12:33:04;4.40;;;3.05;;
16430;SDS011;8325;49.284;7.238;2022-12-05T12:37:26;5.55;;;3.38;;
16430;SDS011;8325;49.284;7.238;2022-12-05T12:50:40;4.03;;;2.97;;
16430;SDS011;8325;49.284;7.238;2022-12-05T12:54:57;3.80;;;2.60;;
16430;SDS011;8325;49.284;7.238;2022-12-05T13:00:19;6.03;;;4.03;;
16430;SDS011;8325;49.284;7.238;2022-12-05T13:04:14;2.45;;;2.15;;
16430;SDS011;8325;49.284;7.238;2022-12-05T13:12:52;3.47;;;2.70;;
16430;SDS011;8325;49.284;7.238;2022-12-05T13:17:05;6.20;;;3.92;;
16430;SDS011;8325;49.284;7.238;2022-12-05T13:21:24;5.75;;;3.67;;
16430;SDS011;8325;49.284;7.238;2022-12-05T13:25:37;5.97;;;3.92;;
16430;SDS011;8325;49.284;7.238;2022-12-05T13:29:54;3.10;;;2.53;;
16430;SDS011;8325;49.284;7.238;2022-12-05T13:38:36;2.55;;;2.10;;
16430;SDS011;8325;49.284;7.238;2022-12-05T13:43:10;2.13;;;1.80;;
16430;SDS011;8325;49.284;7.238;2022-12-05T13:47:25;2.95;;;2.33;;
16430;SDS011;8325;49.284;7.238;2022-12-05T13:51:43;3.78;;;2.78;;
16430;SDS011;8325;49.284;7.238;2022-12-05T13:56:01;2.95;;;1.98;;
16430;SDS011;8325;49.284;7.238;2022-12-05T14:00:21;4.07;;;3.10;;
16430;SDS011;8325;49.284;7.238;2022-12-05T14:04:43;2.63;;;2.42;;
16430;SDS011;8325;49.284;7.238;2022-12-05T14:09:01;4.22;;;2.88;;
16430;SDS011;8325;49.284;7.238;2022-12-05T14:17:43;3.70;;;2.90;;
16430;SDS011;8325;49.284;7.238;2022-12-05T14:22:08;3.58;;;2.70;;
16430;SDS011;8325;49.284;7.238;2022-12-05T14:31:07;4.32;;;2.38;;
16430;SDS011;8325;49.284;7.238;2022-12-05T14:36:01;3.88;;;2.83;;
16430;SDS011;8325;49.284;7.238;2022-12-05T14:40:15;2.78;;;2.50;;
16430;SDS011;8325;49.284;7.238;2022-12-05T14:44:31;2.75;;;2.35;;
16430;SDS011;8325;49.284;7.238;2022-12-05T14:48:44;2.80;;;2.60;;
16430;SDS011;8325;49.284;7.238;2022-12-05T14:57:44;3.28;;;2.70;;
16430;SDS011;8325;49.284;7.238;2022-12-05T15:01:59;3.20;;;2.83;;
16430;SDS011;8325;49.284;7.238;2022-12-05T15:06:13;3.70;;;3.20;;
16430;SDS011;8325;49.284;7.238;2022-12-05T15:10:27;4.45;;;3.15;;
16430;SDS011;8325;49.284;7.238;2022-12-05T15:14:44;3.10;;;2.80;;
16430;SDS011;8325;49.284;7.238;2022-12-05T15:19:01;4.88;;;3.25;;
16430;SDS011;8325;49.284;7.238;2022-12-05T15:23:36;9.90;;;5.60;;
16430;SDS011;8325;49.284;7.238;2022-12-05T15:32:15;14.18;;;10.30;;
16430;SDS011;8325;49.284;7.238;2022-12-05T15:36:33;9.20;;;6.30;;
16430;SDS011;8325;49.284;7.238;2022-12-05T15:40:47;7.68;;;6.15;;
16430;SDS011;8325;49.284;7.238;2022-12-05T15:49:26;5.07;;;3.58;;
16430;SDS011;8325;49.284;7.238;2022-12-05T15:58:00;5.25;;;4.15;;
16430;SDS011;8325;49.284;7.238;2022-12-05T16:02:32;10.15;;;6.97;;
16430;SDS011;8325;49.284;7.238;2022-12-05T16:06:54;43.83;;;21.65;;
16430;SDS011;8325;49.284;7.238;2022-12-05T16:11:07;19.20;;;10.98;;
16430;SDS011;8325;49.284;7.238;2022-12-05T16:15:23;17.75;;;11.50;;
16430;SDS011;8325;49.284;7.238;2022-12-05T16:19:38;13.68;;;9.98;;
16430;SDS011;8325;49.284;7.238;2022-12-05T16:23:49;14.23;;;9.63;;
16430;SDS011;8325;49.284;7.238;2022-12-05T16:28:17;13.15;;;9.23;;
16430;SDS011;8325;49.284;7.238;2022-12-05T16:32:30;12.07;;;8.43;;
16430;SDS011;8325;49.284;7.238;2022-12-05T16:36:45;12.02;;;7.70;;
16430;SDS011;8325;49.284;7.238;2022-12-05T16:41:00;9.45;;;7.78;;
16430;SDS011;8325;49.284;7.238;2022-12-05T16:45:24;9.10;;;7.35;;
16430;SDS011;8325;49.284;7.238;2022-12-05T16:49:48;9.38;;;7.70;;
16430;SDS011;8325;49.284;7.238;2022-12-05T16:54:00;9.35;;;7.00;;
16430;SDS011;8325;49.284;7.238;2022-12-05T16:58:16;9.20;;;6.68;;
16430;SDS011;8325;49.284;7.238;2022-12-05T17:02:32;6.70;;;5.38;;
16430;SDS011;8325;49.284;7.238;2022-12-05T17:06:44;9.23;;;7.55;;
16430;SDS011;8325;49.284;7.238;2022-12-05T17:10:55;11.18;;;8.82;;
16430;SDS011;8325;49.284;7.238;2022-12-05T17:15:17;7.28;;;6.18;;
16430;SDS011;8325;49.284;7.238;2022-12-05T17:19:30;6.30;;;5.18;;
16430;SDS011;8325;49.284;7.238;2022-12-05T17:23:43;7.93;;;6.18;;
16430;SDS011;8325;49.284;7.238;2022-12-05T17:27:58;7.80;;;5.93;;
16430;SDS011;8325;49.284;7.238;2022-12-05T17:32:09;10.13;;;8.00;;
16430;SDS011;8325;49.284;7.238;2022-12-05T17:36:21;9.02;;;6.75;;
16430;SDS011;8325;49.284;7.238;2022-12-05T17:40:33;7.40;;;5.32;;
16430;SDS011;8325;49.284;7.238;2022-12-05T17:44:44;17.15;;;10.30;;
16430;SDS011;8325;49.284;7.238;2022-12-05T17:48:56;12.93;;;8.40;;
16430;SDS011;8325;49.284;7.238;2022-12-05T17:53:11;11.80;;;8.93;;
16430;SDS011;8325;49.284;7.238;2022-12-05T17:57:23;13.30;;;9.80;;
16430;SDS011;8325;49.284;7.238;2022-12-05T18:01:35;9.07;;;7.35;;
16430;SDS011;8325;49.284;7.238;2022-12-05T18:05:46;6.65;;;5.47;;
16430;SDS011;8325;49.284;7.238;2022-12-05T18:09:58;9.40;;;6.75;;
16430;SDS011;8325;49.284;7.238;2022-12-05T18:14:09;10.43;;;8.13;;
16430;SDS011;8325;49.284;7.238;2022-12-05T18:18:21;7.70;;;5.82;;
16430;SDS011;8325;49.284;7.238;2022-12-05T18:22:33;7.07;;;5.18;;
16430;SDS011;8325;49.284;7.238;2022-12-05T18:26:46;6.15;;;4.82;;
16430;SDS011;8325;49.284;7.238;2022-12-05T18:35:15;6.65;;;5.40;;
16430;SDS011;8325;49.284;7.238;2022-12-05T18:39:26;13.97;;;11.67;;
16430;SDS011;8325;49.284;7.238;2022-12-05T18:43:38;10.43;;;8.40;;
16430;SDS011;8325;49.284;7.238;2022-12-05T18:47:50;11.88;;;9.15;;
16430;SDS011;8325;49.284;7.238;2022-12-05T18:52:07;9.00;;;7.13;;
16430;SDS011;8325;49.284;7.238;2022-12-05T18:56:20;7.97;;;5.90;;
16430;SDS011;8325;49.284;7.238;2022-12-05T19:00:36;6.70;;;4.88;;
16430;SDS011;8325;49.284;7.238;2022-12-05T19:04:48;6.15;;;4.88;;
16430;SDS011;8325;49.284;7.238;2022-12-05T19:09:01;4.40;;;3.10;;
16430;SDS011;8325;49.284;7.238;2022-12-05T19:13:17;3.33;;;2.90;;
16430;SDS011;8325;49.284;7.238;2022-12-05T19:17:30;3.20;;;2.60;;
16430;SDS011;8325;49.284;7.238;2022-12-05T19:21:41;3.50;;;2.80;;
16430;SDS011;8325;49.284;7.238;2022-12-05T19:26:00;3.55;;;2.75;;
16430;SDS011;8325;49.284;7.238;2022-12-05T19:30:13;4.10;;;2.78;;
16430;SDS011;8325;49.284;7.238;2022-12-05T19:34:24;3.77;;;2.97;;
16430;SDS011;8325;49.284;7.238;2022-12-05T19:38:36;5.18;;;3.22;;
16430;SDS011;8325;49.284;7.238;2022-12-05T19:42:51;2.88;;;2.50;;
16430;SDS011;8325;49.284;7.238;2022-12-05T19:47:03;8.23;;;5.23;;
16430;SDS011;8325;49.284;7.238;2022-12-05T19:51:14;5.07;;;3.33;;
16430;SDS011;8325;49.284;7.238;2022-12-05T19:55:26;3.67;;;2.92;;
16430;SDS011;8325;49.284;7.238;2022-12-05T19:59:38;4.90;;;2.58;;
16430;SDS011;8325;49.284;7.238;2022-12-05T20:03:53;4.17;;;2.10;;
16430;SDS011;8325;49.284;7.238;2022-12-05T20:08:07;4.82;;;2.85;;
16430;SDS011;8325;49.284;7.238;2022-12-05T20:12:18;5.28;;;3.47;;
16430;SDS011;8325;49.284;7.238;2022-12-05T20:16:30;2.92;;;2.35;;
16430;SDS011;8325;49.284;7.238;2022-12-05T20:20:43;3.03;;;2.47;;
16430;SDS011;8325;49.284;7.238;2022-12-05T20:24:55;4.80;;;2.92;;
16430;SDS011;8325;49.284;7.238;2022-12-05T20:29:07;3.42;;;2.33;;
16430;SDS011;8325;49.284;7.238;2022-12-05T20:33:19;2.20;;;2.00;;
16430;SDS011;8325;49.284;7.238;2022-12-05T20:37:30;2.28;;;2.00;;
16430;SDS011;8325;49.284;7.238;2022-12-05T20:41:47;2.38;;;1.95;;
16430;SDS011;8325;49.284;7.238;2022-12-05T20:46:07;2.67;;;1.92;;
16430;SDS011;8325;49.284;7.238;2022-12-05T20:50:24;2.50;;;2.00;;
16430;SDS011;8325;49.284;7.238;2022-12-05T20:54:35;2.47;;;2.05;;
16430;SDS011;8325;49.284;7.238;2022-12-05T20:58:48;2.33;;;2.08;;
16430;SDS011;8325;49.284;7.238;2022-12-05T21:03:00;2.13;;;1.83;;
16430;SDS011;8325;49.284;7.238;2022-12-05T21:07:12;2.07;;;1.87;;
16430;SDS011;8325;49.284;7.238;2022-12-05T21:11:24;5.87;;;3.33;;
16430;SDS011;8325;49.284;7.238;2022-12-05T21:15:36;2.95;;;2.25;;
16430;SDS011;8325;49.284;7.238;2022-12-05T21:19:48;5.43;;;3.80;;
16430;SDS011;8325;49.284;7.238;2022-12-05T21:24:00;3.10;;;2.75;;
16430;SDS011;8325;49.284;7.238;2022-12-05T21:28:14;2.80;;;2.25;;
16430;SDS011;8325;49.284;7.238;2022-12-05T21:32:25;3.83;;;2.40;;
16430;SDS011;8325;49.284;7.238;2022-12-05T21:36:37;4.40;;;2.85;;
16430;SDS011;8325;49.284;7.238;2022-12-05T21:40:49;2.38;;;2.17;;
16430;SDS011;8325;49.284;7.238;2022-12-05T21:45:00;3.10;;;2.63;;
16430;SDS011;8325;49.284;7.238;2022-12-05T21:49:12;4.85;;;3.28;;
16430;SDS011;8325;49.284;7.238;2022-12-05T21:53:24;4.35;;;3.42;;
16430;SDS011;8325;49.284;7.238;2022-12-05T21:57:35;6.93;;;4.15;;
16430;SDS011;8325;49.284;7.238;2022-12-05T22:01:50;4.50;;;3.72;;
16430;SDS011;8325;49.284;7.238;2022-12-05T22:06:02;8.05;;;4.30;;
16430;SDS011;8325;49.284;7.238;2022-12-05T22:10:15;6.18;;;3.35;;
16430;SDS011;8325;49.284;7.238;2022-12-05T22:14:27;4.32;;;3.42;;
16430;SDS011;8325;49.284;7.238;2022-12-05T22:18:39;5.25;;;3.90;;
16430;SDS011;8325;49.284;7.238;2022-12-05T22:22:51;5.20;;;3.85;;
16430;SDS011;8325;49.284;7.238;2022-12-05T22:27:02;6.05;;;3.28;;
